Time;durP1;ratioP1;P1;durP2;ratioP2;P2;SDS_P1;SDS_P2;PMS_P1;PMS_P2;Temp;Humidity;BMP_temperature;BMP_pressure;BME280_temperature;BME280_humidity;BME280_pressure;Samples;Min_cycle;Max_cycle;Signal;HPM_P1;HPM_P2
2023/07/02 00:01:13;;;;;;;2.95;2.40;;;17.90;99.90;;;;;;5052418;28;20048;-67
2023/07/02 00:03:38;;;;;;;5.97;2.78;;;18.00;99.90;;;;;;5052348;28;20029;-67
2023/07/02 00:06:04;;;;;;;5.53;2.40;;;18.00;99.90;;;;;;5052377;28;20126;-69
2023/07/02 00:08:30;;;;;;;7.45;2.30;;;17.90;99.90;;;;;;5052278;28;20045;-69
2023/07/02 00:10:56;;;;;;;8.57;3.25;;;17.90;99.90;;;;;;5052620;28;20447;-68
2023/07/02 00:13:22;;;;;;;7.57;2.85;;;17.90;99.90;;;;;;5052058;28;20114;-67
2023/07/02 00:15:47;;;;;;;5.10;2.60;;;17.80;99.90;;;;;;5051149;28;20041;-68
2023/07/02 00:18:16;;;;;;;9.02;2.67;;;17.90;99.90;;;;;;5052127;28;20044;-67
2023/07/02 00:20:43;;;;;;;6.22;2.50;;;17.80;99.90;;;;;;5052229;28;20082;-68
2023/07/02 00:23:09;;;;;;;8.52;2.90;;;17.80;99.90;;;;;;5052126;28;20017;-68
2023/07/02 00:25:36;;;;;;;4.55;2.30;;;17.80;99.90;;;;;;5051751;28;20025;-69
2023/07/02 00:28:02;;;;;;;10.30;2.75;;;17.80;99.90;;;;;;5035761;28;20067;-67
2023/07/02 00:30:27;;;;;;;8.20;2.53;;;17.80;99.90;;;;;;5031738;28;20253;-68
2023/07/02 00:32:53;;;;;;;9.70;2.50;;;17.80;99.90;;;;;;5031828;28;20038;-68
2023/07/02 00:35:19;;;;;;;7.30;2.03;;;17.80;99.90;;;;;;5031270;28;20353;-67
2023/07/02 00:37:44;;;;;;;7.75;2.38;;;17.70;99.90;;;;;;5032283;28;20035;-68
2023/07/02 00:40:10;;;;;;;6.63;2.92;;;17.70;99.90;;;;;;5030731;28;20033;-68
2023/07/02 00:42:36;;;;;;;4.43;2.20;;;17.70;99.90;;;;;;5031588;28;20029;-67
2023/07/02 00:45:05;;;;;;;9.45;2.40;;;17.70;99.90;;;;;;5030620;28;20030;-67
2023/07/02 00:47:35;;;;;;;3.83;2.20;;;17.70;99.90;;;;;;5031748;28;20057;-68
2023/07/02 00:50:01;;;;;;;3.80;2.33;;;17.80;99.90;;;;;;5032059;28;20147;-68
2023/07/02 00:52:27;;;;;;;5.47;2.40;;;17.70;99.90;;;;;;5031548;28;20260;-67
2023/07/02 00:54:53;;;;;;;6.35;3.20;;;17.70;99.90;;;;;;5031515;28;20375;-67
2023/07/02 00:57:20;;;;;;;2.83;1.73;;;17.70;99.90;;;;;;5031276;28;20025;-66
2023/07/02 00:59:46;;;;;;;4.70;2.05;;;17.60;99.90;;;;;;5031130;28;20443;-67
2023/07/02 01:02:12;;;;;;;3.55;2.42;;;17.70;99.90;;;;;;5031426;28;20025;-67
2023/07/02 01:04:39;;;;;;;5.45;1.92;;;17.60;99.90;;;;;;5032047;28;20104;-68
2023/07/02 01:07:11;;;;;;;7.93;2.38;;;17.60;99.90;;;;;;5031236;28;20033;-68
2023/07/02 01:09:36;;;;;;;9.20;2.28;;;17.50;99.90;;;;;;5031262;28;20027;-66
2023/07/02 01:12:05;;;;;;;5.10;2.38;;;17.40;99.90;;;;;;5030247;28;20117;-67
2023/07/02 01:14:43;;;;;;;6.20;1.90;;;17.50;99.90;;;;;;5030914;28;20044;-68
2023/07/02 01:17:10;;;;;;;6.85;1.67;;;17.50;99.90;;;;;;5030725;28;20034;-68
2023/07/02 01:19:53;;;;;;;14.00;4.28;;;17.40;99.90;;;;;;5031850;28;20055;-68
2023/07/02 01:22:23;;;;;;;7.05;2.60;;;17.40;99.90;;;;;;5030967;28;20477;-68
2023/07/02 01:24:50;;;;;;;6.90;2.15;;;17.40;99.90;;;;;;5030661;28;20460;-67
2023/07/02 01:27:16;;;;;;;4.40;2.33;;;17.30;99.90;;;;;;5031027;28;20318;-67
2023/07/02 01:29:44;;;;;;;6.53;2.25;;;17.30;99.90;;;;;;5030902;28;20033;-67
2023/07/02 01:32:10;;;;;;;5.88;3.10;;;17.20;99.90;;;;;;5031052;28;20029;-67
2023/07/02 01:34:36;;;;;;;9.15;2.63;;;17.20;99.90;;;;;;5031520;28;20029;-67
2023/07/02 01:37:03;;;;;;;6.50;1.77;;;17.30;99.90;;;;;;5081414;28;20348;-68
2023/07/02 01:39:29;;;;;;;5.68;2.05;;;17.30;99.90;;;;;;5050634;28;20114;-67
2023/07/02 01:42:06;;;;;;;11.23;2.78;;;17.20;99.90;;;;;;5050585;28;20459;-68
2023/07/02 01:44:32;;;;;;;10.00;2.72;;;17.20;99.90;;;;;;5082954;28;20040;-68
2023/07/02 01:46:58;;;;;;;4.85;2.30;;;17.20;99.90;;;;;;5050751;28;20021;-68
2023/07/02 01:49:24;;;;;;;4.95;2.45;;;17.20;99.90;;;;;;5050223;28;20112;-67
2023/07/02 01:51:51;;;;;;;3.42;2.10;;;17.20;99.90;;;;;;5049935;28;20040;-68
2023/07/02 01:54:22;;;;;;;6.75;2.60;;;17.10;99.90;;;;;;5050318;28;20040;-69
2023/07/02 01:56:48;;;;;;;6.35;2.40;;;17.10;99.90;;;;;;5050198;28;20033;-67
2023/07/02 01:59:15;;;;;;;6.63;2.22;;;17.20;99.90;;;;;;5048950;28;20043;-67
2023/07/02 02:01:41;;;;;;;8.38;2.80;;;17.20;99.90;;;;;;5050523;28;20098;-67
2023/07/02 02:04:07;;;;;;;6.57;2.83;;;17.10;99.90;;;;;;5050207;28;20518;-67
2023/07/02 02:06:33;;;;;;;7.57;2.60;;;17.10;99.90;;;;;;5049982;28;20451;-71
2023/07/02 02:08:59;;;;;;;4.15;2.47;;;17.10;99.90;;;;;;5050184;28;20029;-68
2023/07/02 02:11:25;;;;;;;6.22;2.47;;;17.10;99.90;;;;;;5049061;28;20029;-67
2023/07/02 02:13:51;;;;;;;8.55;2.28;;;17.20;99.90;;;;;;5050453;28;20025;-68
2023/07/02 02:16:17;;;;;;;11.95;3.15;;;17.10;99.90;;;;;;5050097;28;20108;-68
2023/07/02 02:18:43;;;;;;;6.00;2.80;;;17.10;99.90;;;;;;5050026;28;20030;-68
2023/07/02 02:21:08;;;;;;;6.13;2.92;;;17.20;99.90;;;;;;5050067;28;20112;-67
2023/07/02 02:23:34;;;;;;;7.85;3.00;;;17.10;99.90;;;;;;5049690;28;20033;-68
2023/07/02 02:26:00;;;;;;;9.95;3.00;;;17.20;99.90;;;;;;5050565;28;20116;-68
2023/07/02 02:28:26;;;;;;;3.45;2.72;;;17.20;99.90;;;;;;5049948;28;20132;-67
2023/07/02 02:30:52;;;;;;;7.13;2.97;;;17.20;99.90;;;;;;5049584;28;20362;-68
2023/07/02 02:33:17;;;;;;;6.22;3.05;;;17.20;99.90;;;;;;5050041;28;20033;-68
2023/07/02 02:35:43;;;;;;;9.20;3.25;;;17.20;99.90;;;;;;5049620;28;20419;-69
2023/07/02 02:38:09;;;;;;;13.48;3.38;;;17.20;99.90;;;;;;5049842;28;20036;-69
2023/07/02 02:40:34;;;;;;;8.38;3.33;;;17.20;99.90;;;;;;5049128;28;20095;-68
2023/07/02 02:43:00;;;;;;;7.13;3.33;;;17.20;99.90;;;;;;5049839;28;20047;-68
2023/07/02 02:45:26;;;;;;;7.80;3.13;;;17.20;99.90;;;;;;5049663;28;20038;-68
2023/07/02 02:47:52;;;;;;;7.03;3.42;;;17.20;99.90;;;;;;5049822;28;20037;-67
2023/07/02 02:50:17;;;;;;;12.02;4.13;;;17.30;99.90;;;;;;5049623;28;20497;-67
2023/07/02 02:52:43;;;;;;;12.52;4.13;;;17.30;99.90;;;;;;5050031;28;20473;-68
2023/07/02 02:55:10;;;;;;;10.13;4.25;;;17.30;99.90;;;;;;5048640;28;20033;-66
2023/07/02 02:57:36;;;;;;;6.65;3.88;;;17.30;99.90;;;;;;5049501;28;20033;-67
2023/07/02 03:00:03;;;;;;;10.65;4.28;;;17.30;99.90;;;;;;5049576;28;20044;-68
2023/07/02 03:02:29;;;;;;;16.35;4.28;;;17.30;99.90;;;;;;5050149;28;20029;-67
2023/07/02 03:04:56;;;;;;;9.77;3.90;;;17.30;99.90;;;;;;5053747;28;20021;-67
2023/07/02 03:07:22;;;;;;;5.88;3.47;;;17.40;99.90;;;;;;5052131;28;20025;-67
2023/07/02 03:09:48;;;;;;;11.23;3.85;;;17.30;99.90;;;;;;5053169;28;20033;-67
2023/07/02 03:12:14;;;;;;;11.02;3.75;;;17.30;99.90;;;;;;5053132;28;20055;-67
2023/07/02 03:14:39;;;;;;;9.25;4.90;;;17.40;99.90;;;;;;5052003;28;20459;-67
2023/07/02 03:17:05;;;;;;;7.70;4.07;;;17.40;99.90;;;;;;5053293;28;20020;-67
2023/07/02 03:19:31;;;;;;;6.28;3.63;;;17.40;99.90;;;;;;5053405;28;20359;-67
2023/07/02 03:21:56;;;;;;;7.47;3.97;;;17.50;99.90;;;;;;5052915;28;20111;-67
2023/07/02 03:24:22;;;;;;;5.43;4.07;;;17.40;99.90;;;;;;5052921;28;20163;-68
2023/07/02 03:26:48;;;;;;;8.43;4.05;;;17.40;99.90;;;;;;5052976;28;20037;-68
2023/07/02 03:29:13;;;;;;;6.85;4.72;;;17.40;99.90;;;;;;5053095;28;20079;-67
2023/07/02 03:31:39;;;;;;;10.82;5.32;;;17.40;99.90;;;;;;5053084;28;20052;-66
2023/07/02 03:34:09;;;;;;;14.60;4.97;;;17.40;99.90;;;;;;5052729;28;20025;-68
2023/07/02 03:36:36;;;;;;;9.57;4.55;;;17.40;99.90;;;;;;5052603;28;20029;-68
2023/07/02 03:39:02;;;;;;;11.52;4.72;;;17.50;99.90;;;;;;5052581;28;20035;-66
2023/07/02 03:41:28;;;;;;;9.02;4.35;;;17.50;99.90;;;;;;5052528;28;20045;-67
2023/07/02 03:43:54;;;;;;;6.28;4.78;;;17.40;99.90;;;;;;5053207;28;20102;-68
2023/07/02 03:46:20;;;;;;;7.07;4.28;;;17.50;99.90;;;;;;5052686;28;20375;-68
2023/07/02 03:48:45;;;;;;;7.00;5.07;;;17.50;99.90;;;;;;5052890;28;20386;-67
2023/07/02 03:51:14;;;;;;;6.47;4.50;;;17.50;99.90;;;;;;5052487;28;20098;-67
2023/07/02 03:53:40;;;;;;;8.82;4.63;;;17.50;99.90;;;;;;5051449;28;20372;-67
2023/07/02 03:56:06;;;;;;;14.02;6.20;;;17.60;99.90;;;;;;5052501;28;20033;-68
2023/07/02 03:58:31;;;;;;;13.68;4.60;;;17.60;99.90;;;;;;5053229;28;20017;-67
2023/07/02 04:00:57;;;;;;;10.80;4.57;;;17.60;99.90;;;;;;5052531;28;20104;-68
2023/07/02 04:03:23;;;;;;;7.45;4.30;;;17.60;99.90;;;;;;5051083;28;20053;-67
2023/07/02 04:05:48;;;;;;;6.20;4.75;;;17.60;99.90;;;;;;5052339;28;20048;-69
2023/07/02 04:08:15;;;;;;;8.02;4.25;;;17.60;99.90;;;;;;5052221;28;20029;-68
2023/07/02 04:10:41;;;;;;;10.60;4.60;;;17.60;99.90;;;;;;5085027;28;20040;-68
2023/07/02 04:13:07;;;;;;;10.25;4.80;;;17.60;99.90;;;;;;5052511;28;20037;-68
2023/07/02 04:15:33;;;;;;;11.68;4.70;;;17.60;99.90;;;;;;5051297;28;20110;-68
2023/07/02 04:17:58;;;;;;;12.63;4.75;;;17.60;99.90;;;;;;5052065;28;20033;-67
2023/07/02 04:20:25;;;;;;;8.43;4.63;;;17.60;99.90;;;;;;5050831;28;20094;-68
2023/07/02 04:22:51;;;;;;;8.75;4.30;;;17.70;99.90;;;;;;5052195;28;20059;-68
2023/07/02 04:25:16;;;;;;;5.88;4.30;;;17.70;99.90;;;;;;5051886;28;20037;-67
2023/07/02 04:27:43;;;;;;;9.27;4.25;;;17.70;99.90;;;;;;5051894;28;20159;-67
2023/07/02 04:30:10;;;;;;;8.52;4.38;;;17.70;99.90;;;;;;5050699;28;20477;-67
2023/07/02 04:32:39;;;;;;;10.70;4.93;;;17.60;99.90;;;;;;5050878;28;20478;-68
2023/07/02 04:35:06;;;;;;;9.50;4.25;;;17.60;99.90;;;;;;5051725;28;20025;-69
2023/07/02 04:37:31;;;;;;;9.98;4.50;;;17.70;99.90;;;;;;5052292;28;20099;-67
2023/07/02 04:39:57;;;;;;;12.88;4.32;;;17.70;99.90;;;;;;5050428;28;20113;-68
2023/07/02 04:42:27;;;;;;;13.95;4.00;;;17.60;99.90;;;;;;5051632;28;20040;-67
2023/07/02 04:44:54;;;;;;;8.18;4.28;;;17.70;99.90;;;;;;5051812;28;20492;-67
2023/07/02 04:47:20;;;;;;;11.05;4.30;;;17.60;99.90;;;;;;5051564;28;20469;-68
2023/07/02 04:49:45;;;;;;;10.43;4.22;;;17.60;99.90;;;;;;5052024;28;20041;-68
2023/07/02 04:52:11;;;;;;;12.38;4.40;;;17.60;99.90;;;;;;5051758;28;20040;-69
2023/07/02 04:54:37;;;;;;;14.18;4.47;;;17.50;99.90;;;;;;5051378;28;20430;-68
2023/07/02 04:57:03;;;;;;;16.65;5.75;;;17.40;99.90;;;;;;5050342;28;20540;-68
2023/07/02 04:59:29;;;;;;;15.32;4.78;;;17.30;99.90;;;;;;5051029;28;20033;-68
2023/07/02 05:01:54;;;;;;;13.85;4.93;;;17.30;99.90;;;;;;5051569;28;20021;-68
2023/07/02 05:04:20;;;;;;;11.88;5.03;;;17.30;99.90;;;;;;5051111;28;20336;-68
2023/07/02 05:06:46;;;;;;;16.08;5.40;;;17.30;99.90;;;;;;5050921;28;20043;-68
2023/07/02 05:09:11;;;;;;;14.32;5.50;;;17.30;99.90;;;;;;5051156;28;20033;-68
2023/07/02 05:11:37;;;;;;;13.80;4.68;;;17.30;99.90;;;;;;5051021;28;20052;-68
2023/07/02 05:14:02;;;;;;;12.65;5.03;;;17.30;99.90;;;;;;5051680;28;20100;-68
2023/07/02 05:16:28;;;;;;;15.27;4.82;;;17.30;99.90;;;;;;5051010;28;20025;-68
2023/07/02 05:18:54;;;;;;;13.98;4.07;;;17.20;99.90;;;;;;5050848;28;20029;-67
2023/07/02 05:21:20;;;;;;;11.65;4.60;;;17.30;99.90;;;;;;5050701;28;20033;-68
2023/07/02 05:23:45;;;;;;;14.70;5.00;;;17.20;99.90;;;;;;5050626;28;20045;-67
2023/07/02 05:26:11;;;;;;;13.98;4.70;;;17.20;99.90;;;;;;5050450;28;20055;-68
2023/07/02 05:28:36;;;;;;;14.75;4.95;;;17.30;99.90;;;;;;5051023;28;20032;-67
2023/07/02 05:31:02;;;;;;;15.20;4.75;;;17.30;99.90;;;;;;5050432;28;20106;-67
2023/07/02 05:33:28;;;;;;;16.42;5.38;;;17.30;99.90;;;;;;5050504;28;20029;-67
2023/07/02 05:35:53;;;;;;;11.68;4.72;;;17.30;99.90;;;;;;5050753;28;20040;-68
2023/07/02 05:38:19;;;;;;;16.15;5.18;;;17.30;99.90;;;;;;5050862;28;20017;-67
2023/07/02 05:40:46;;;;;;;15.65;4.57;;;17.40;99.90;;;;;;5051237;28;20069;-67
2023/07/02 05:43:11;;;;;;;13.32;4.60;;;17.40;99.90;;;;;;5050760;28;20521;-68
2023/07/02 05:45:37;;;;;;;17.10;5.55;;;17.40;99.90;;;;;;5050592;28;20025;-68
2023/07/02 05:48:03;;;;;;;14.20;5.00;;;17.20;99.90;;;;;;5049379;28;20383;-68
2023/07/02 05:50:29;;;;;;;13.02;4.90;;;17.30;99.90;;;;;;5049541;28;20368;-67
2023/07/02 05:52:55;;;;;;;14.32;4.93;;;17.30;99.90;;;;;;5051063;28;20375;-67
2023/07/02 05:55:21;;;;;;;17.65;5.68;;;17.20;99.90;;;;;;5049474;28;20044;-67
2023/07/02 05:57:46;;;;;;;10.57;4.88;;;17.30;99.90;;;;;;5050406;28;20041;-68
2023/07/02 06:00:13;;;;;;;14.02;4.85;;;17.30;99.90;;;;;;5050249;28;20036;-67
2023/07/02 06:02:38;;;;;;;11.45;4.78;;;17.40;99.90;;;;;;5050064;28;20419;-67
2023/07/02 06:05:05;;;;;;;11.65;4.32;;;17.40;99.90;;;;;;5050149;28;20052;-69
2023/07/02 06:07:30;;;;;;;32.28;7.22;;;17.40;99.90;;;;;;5051010;28;20021;-68
2023/07/02 06:09:56;;;;;;;11.95;4.88;;;17.50;99.90;;;;;;5050334;28;20102;-68
2023/07/02 06:12:22;;;;;;;12.98;5.00;;;17.50;99.90;;;;;;5050308;28;20032;-68
2023/07/02 06:14:48;;;;;;;11.93;4.72;;;17.60;99.90;;;;;;5050106;28;20036;-68
2023/07/02 06:17:15;;;;;;;15.18;4.90;;;17.70;99.90;;;;;;5050190;28;20045;-68
2023/07/02 06:19:40;;;;;;;14.93;4.55;;;17.70;99.90;;;;;;5050500;28;20036;-67
2023/07/02 06:22:06;;;;;;;11.95;4.78;;;17.70;99.90;;;;;;5050013;28;20022;-69
2023/07/02 06:24:32;;;;;;;18.83;4.97;;;17.80;99.90;;;;;;5049467;28;20344;-69
2023/07/02 06:26:58;;;;;;;14.70;5.20;;;17.80;99.90;;;;;;5050030;28;20025;-70
2023/07/02 06:29:24;;;;;;;12.25;4.45;;;17.80;99.90;;;;;;5048940;28;20045;-69
2023/07/02 06:31:50;;;;;;;12.10;4.53;;;17.90;99.90;;;;;;5050247;28;20056;-68
2023/07/02 06:34:16;;;;;;;12.85;4.68;;;18.00;99.90;;;;;;5048898;28;20048;-68
2023/07/02 06:36:42;;;;;;;20.42;5.70;;;18.00;99.90;;;;;;5050019;28;20025;-70
2023/07/02 06:39:09;;;;;;;15.82;5.45;;;18.00;99.90;;;;;;5052290;28;20044;-69
2023/07/02 06:41:35;;;;;;;14.48;4.90;;;18.00;99.90;;;;;;5054332;28;20106;-70
2023/07/02 06:44:01;;;;;;;15.52;5.20;;;18.20;99.90;;;;;;5054713;28;20037;-69
2023/07/02 06:46:27;;;;;;;22.35;5.53;;;18.10;99.90;;;;;;5054143;28;20037;-69
2023/07/02 06:48:53;;;;;;;16.55;5.30;;;18.20;99.90;;;;;;5053060;28;20025;-70
2023/07/02 06:51:20;;;;;;;20.73;6.00;;;18.20;99.80;;;;;;5053039;28;20025;-69
2023/07/02 06:53:46;;;;;;;20.38;5.18;;;18.10;99.30;;;;;;5053615;28;20037;-69
2023/07/02 06:56:12;;;;;;;21.63;6.25;;;18.10;99.00;;;;;;5052972;28;20331;-69
2023/07/02 06:58:40;;;;;;;17.02;5.75;;;18.20;98.20;;;;;;5053076;28;20020;-70
2023/07/02 07:01:05;;;;;;;;;;;18.20;97.60;;;;;;5054165;28;20111;-70
2023/07/02 07:03:31;;;;;;;18.45;5.55;;;18.30;97.40;;;;;;5052416;28;20346;-70
2023/07/02 07:05:57;;;;;;;21.48;5.85;;;18.30;97.10;;;;;;5051290;28;20344;-70
2023/07/02 07:08:22;;;;;;;16.98;5.50;;;18.40;97.40;;;;;;5053504;28;20124;-70
2023/07/02 07:10:49;;;;;;;21.73;6.20;;;18.40;98.00;;;;;;5053879;28;20525;-70
2023/07/02 07:13:15;;;;;;;15.03;5.87;;;18.40;98.20;;;;;;5054563;28;20142;-70
2023/07/02 07:15:42;;;;;;;17.45;5.30;;;18.60;98.50;;;;;;5054462;28;20740;-70
2023/07/02 07:18:09;;;;;;;18.40;6.05;;;18.70;98.40;;;;;;5054404;28;20033;-70
2023/07/02 07:20:35;;;;;;;14.00;5.45;;;18.80;98.10;;;;;;5053893;28;20052;-71
2023/07/02 07:23:02;;;;;;;19.52;5.80;;;18.80;98.10;;;;;;5054515;28;20439;-70
2023/07/02 07:25:28;;;;;;;17.50;5.60;;;18.90;97.70;;;;;;5054035;28;20080;-71
2023/07/02 07:27:53;;;;;;;12.02;5.13;;;18.80;97.60;;;;;;5054039;28;20061;-70
2023/07/02 07:30:22;;;;;;;14.73;5.00;;;18.90;97.70;;;;;;5053540;28;20041;-70
2023/07/02 07:32:51;;;;;;;13.88;5.53;;;18.90;98.10;;;;;;5052565;28;20025;-70
2023/07/02 07:35:18;;;;;;;17.42;5.47;;;19.00;98.20;;;;;;5051325;28;20032;-70
2023/07/02 07:37:44;;;;;;;21.02;6.28;;;18.90;97.90;;;;;;5045571;28;20029;-70
2023/07/02 07:40:11;;;;;;;14.02;5.78;;;18.80;97.10;;;;;;5052658;28;20032;-70
2023/07/02 07:42:37;;;;;;;22.20;6.40;;;19.00;97.30;;;;;;5085205;28;20021;-70
2023/07/02 07:45:04;;;;;;;16.95;5.68;;;19.00;96.10;;;;;;5052676;28;20048;-71
2023/07/02 07:47:29;;;;;;;18.95;6.20;;;18.90;95.80;;;;;;5052893;28;20048;-69
2023/07/02 07:49:55;;;;;;;20.63;6.82;;;18.80;95.70;;;;;;5051338;28;20447;-71
2023/07/02 07:52:21;;;;;;;23.10;8.95;;;18.90;95.50;;;;;;5051561;28;20061;-74
2023/07/02 07:54:47;;;;;;;22.77;7.10;;;19.20;95.80;;;;;;5052085;28;20370;-71
2023/07/02 07:57:14;;;;;;;21.08;6.70;;;19.30;94.80;;;;;;5052387;28;20033;-70
2023/07/02 07:59:39;;;;;;;22.45;6.68;;;19.30;94.70;;;;;;5052282;28;20037;-70
2023/07/02 08:02:06;;;;;;;31.13;7.45;;;19.50;94.20;;;;;;5052360;28;20629;-70
2023/07/02 08:04:32;;;;;;;21.17;6.65;;;19.50;93.60;;;;;;5052645;28;20072;-72
2023/07/02 08:07:00;;;;;;;18.50;5.75;;;19.60;93.30;;;;;;5052175;28;20475;-72
2023/07/02 08:09:26;;;;;;;20.67;6.57;;;19.70;93.40;;;;;;5052423;28;20132;-72
2023/07/02 08:11:51;;;;;;;21.77;6.68;;;19.80;93.30;;;;;;5053511;28;20479;-72
2023/07/02 08:14:18;;;;;;;16.42;6.05;;;19.90;93.20;;;;;;5050717;28;20021;-70
2023/07/02 08:16:44;;;;;;;19.30;6.43;;;19.90;93.60;;;;;;5051792;28;20064;-72
2023/07/02 08:19:11;;;;;;;17.85;5.82;;;19.90;93.60;;;;;;5052303;28;20086;-70
2023/07/02 08:21:36;;;;;;;25.25;7.20;;;20.00;92.80;;;;;;5052155;28;20443;-70
2023/07/02 08:24:03;;;;;;;18.73;6.30;;;20.00;92.60;;;;;;5084900;28;20060;-70
2023/07/02 08:26:29;;;;;;;18.02;6.28;;;20.30;92.80;;;;;;5052689;28;20037;-70
2023/07/02 08:28:54;;;;;;;22.27;6.75;;;20.60;92.20;;;;;;5053094;28;20028;-71
2023/07/02 08:31:20;;;;;;;26.17;7.13;;;20.80;91.90;;;;;;5012315;28;1134165;-70
2023/07/02 08:33:46;;;;;;;19.15;6.95;;;21.00;91.40;;;;;;5053312;28;20044;-69
2023/07/02 08:36:13;;;;;;;19.95;6.25;;;21.30;90.00;;;;;;5052447;28;20463;-69
2023/07/02 08:38:41;;;;;;;18.75;5.72;;;21.80;90.10;;;;;;5052576;28;20079;-70
2023/07/02 08:41:07;;;;;;;17.58;6.53;;;22.30;87.20;;;;;;5053725;28;20047;-71
2023/07/02 08:43:33;;;;;;;15.52;5.93;;;22.70;86.60;;;;;;5053782;28;20459;-70
2023/07/02 08:45:59;;;;;;;18.58;7.00;;;23.10;86.90;;;;;;5053001;28;20030;-70
2023/07/02 08:48:29;;;;;;;15.50;6.10;;;23.70;83.80;;;;;;5053317;28;20025;-70
2023/07/02 08:50:55;;;;;;;18.33;6.00;;;24.20;81.90;;;;;;5053030;28;20091;-71
2023/07/02 08:53:25;;;;;;;18.17;6.03;;;24.90;81.00;;;;;;5051951;28;20121;-70
2023/07/02 08:55:51;;;;;;;14.65;6.22;;;24.80;79.50;;;;;;5053214;28;20021;-70
2023/07/02 08:58:16;;;;;;;13.32;6.10;;;24.30;76.70;;;;;;5052823;28;20171;-70
2023/07/02 09:01:09;;;;;;;17.77;6.07;;;24.80;76.70;;;;;;5052584;28;20429;-70
2023/07/02 09:03:38;;;;;;;15.43;6.32;;;24.80;74.10;;;;;;5053280;28;20055;-72
2023/07/02 09:06:09;;;;;;;15.98;6.45;;;24.90;72.70;;;;;;5052413;28;20060;-70
2023/07/02 09:08:35;;;;;;;18.60;6.60;;;23.90;72.80;;;;;;5052168;28;20044;-71
2023/07/02 09:11:12;;;;;;;18.40;6.75;;;23.00;75.00;;;;;;5056916;28;20501;-71
2023/07/02 09:14:01;;;;;;;16.67;6.25;;;22.80;76.00;;;;;;5055946;28;20156;-69
2023/07/02 09:16:32;;;;;;;20.95;6.88;;;22.40;76.00;;;;;;5050263;28;20048;-72
2023/07/02 09:19:01;;;;;;;18.50;6.38;;;22.20;77.00;;;;;;5051012;28;20149;-71
2023/07/02 09:21:37;;;;;;;19.17;7.20;;;22.20;77.40;;;;;;5051938;28;20037;-71
2023/07/02 09:24:12;;;;;;;20.63;6.32;;;22.40;76.40;;;;;;5051098;28;20195;-68
2023/07/02 09:26:41;;;;;;;17.00;7.03;;;22.10;76.50;;;;;;5050970;28;20033;-70
2023/07/02 09:29:06;;;;;;;19.75;6.97;;;22.20;76.80;;;;;;5052094;28;20025;-69
2023/07/02 09:31:46;;;;;;;26.42;6.82;;;21.90;77.50;;;;;;5052353;28;20123;-70
2023/07/02 09:34:12;;;;;;;21.08;6.10;;;21.80;78.20;;;;;;5051724;28;20029;-70
2023/07/02 09:36:40;;;;;;;18.55;6.65;;;21.60;79.20;;;;;;5052002;28;20048;-69
2023/07/02 09:39:20;;;;;;;21.08;6.70;;;21.30;80.60;;;;;;5052005;28;20458;-69
2023/07/02 09:41:49;;;;;;;17.52;6.70;;;21.60;81.00;;;;;;5052024;28;20073;-69
2023/07/02 09:44:16;;;;;;;18.00;6.20;;;21.70;81.40;;;;;;5051708;28;20032;-69
2023/07/02 09:46:49;;;;;;;16.58;6.60;;;21.70;81.00;;;;;;5052177;28;20482;-70
2023/07/02 09:49:17;;;;;;;13.07;6.38;;;21.90;79.70;;;;;;5050786;28;20039;-68
2023/07/02 09:51:43;;;;;;;21.98;6.93;;;21.70;78.20;;;;;;5050711;28;20025;-74
2023/07/02 09:54:10;;;;;;;20.50;6.82;;;21.60;78.60;;;;;;5050481;28;20033;-69
2023/07/02 09:56:36;;;;;;;19.42;6.57;;;21.60;78.40;;;;;;5051088;28;20048;-70
2023/07/02 09:59:01;;;;;;;21.88;7.25;;;21.50;79.00;;;;;;5051858;28;20029;-70
2023/07/02 10:01:28;;;;;;;17.90;6.57;;;21.60;79.10;;;;;;5051364;28;20037;-68
2023/07/02 10:03:54;;;;;;;16.67;5.80;;;21.70;79.10;;;;;;5050798;28;20200;-69
2023/07/02 10:06:20;;;;;;;15.63;6.47;;;21.90;78.20;;;;;;5051350;28;20446;-68
2023/07/02 10:08:56;;;;;;;23.10;6.28;;;21.60;76.60;;;;;;5051342;28;20279;-72
2023/07/02 10:11:34;;;;;;;15.73;6.88;;;21.40;77.10;;;;;;5051300;28;20051;-70
2023/07/02 10:14:00;;;;;;;16.27;6.07;;;21.10;78.00;;;;;;5051530;28;20208;-69
2023/07/02 10:16:27;;;;;;;19.60;6.22;;;21.00;77.70;;;;;;5051399;28;20332;-71
2023/07/02 10:19:07;;;;;;;18.48;6.07;;;21.00;77.90;;;;;;5050850;28;20040;-68
2023/07/02 10:21:33;;;;;;;16.55;5.78;;;21.30;78.00;;;;;;5050555;28;20037;-68
2023/07/02 10:24:12;;;;;;;15.73;6.53;;;21.50;77.50;;;;;;5050755;28;20489;-73
2023/07/02 10:26:38;;;;;;;31.17;6.63;;;21.70;77.20;;;;;;5065692;28;20033;-71
2023/07/02 10:29:06;;;;;;;13.98;5.57;;;21.70;76.50;;;;;;5051359;28;20035;-70
2023/07/02 10:31:31;;;;;;;17.20;6.22;;;21.80;76.30;;;;;;5051314;28;20045;-70
2023/07/02 10:33:57;;;;;;;13.40;6.30;;;21.90;75.20;;;;;;5050358;28;20025;-70
2023/07/02 10:36:25;;;;;;;18.38;6.43;;;21.80;75.30;;;;;;5050708;28;20060;-71
2023/07/02 10:38:51;;;;;;;20.20;6.30;;;21.90;75.40;;;;;;5050588;28;20025;-69
2023/07/02 10:41:30;;;;;;;13.13;5.50;;;21.80;74.60;;;;;;5082426;28;20029;-70
2023/07/02 10:44:06;;;;;;;17.42;5.80;;;21.40;75.50;;;;;;5049097;28;20366;-71
2023/07/02 10:46:32;;;;;;;18.52;5.80;;;21.50;76.20;;;;;;5029806;28;20025;-71
2023/07/02 10:48:58;;;;;;;20.65;5.85;;;21.50;76.20;;;;;;5029899;28;20026;-70
2023/07/02 10:51:24;;;;;;;11.52;5.28;;;21.60;76.30;;;;;;5029659;28;20034;-70
2023/07/02 10:54:04;;;;;;;14.65;5.72;;;21.70;75.60;;;;;;5029468;28;20025;-72
2023/07/02 10:56:31;;;;;;;13.77;5.63;;;21.50;75.40;;;;;;5029519;28;20404;-70
2023/07/02 10:58:57;;;;;;;15.68;5.78;;;21.40;76.00;;;;;;5029851;28;20069;-71
2023/07/02 11:01:23;;;;;;;15.68;6.38;;;21.40;76.50;;;;;;5028116;28;20491;-71
2023/07/02 11:04:04;;;;;;;17.58;5.25;;;21.30;76.60;;;;;;5028531;28;20033;-70
2023/07/02 11:06:33;;;;;;;17.42;5.50;;;21.40;77.40;;;;;;5029409;28;20033;-69
2023/07/02 11:08:59;;;;;;;11.48;5.20;;;21.60;77.50;;;;;;5029421;28;20479;-70
2023/07/02 11:11:25;;;;;;;14.77;5.57;;;21.80;76.80;;;;;;5029472;28;20037;-70
2023/07/02 11:13:52;;;;;;;13.10;5.40;;;21.80;76.80;;;;;;5030038;28;20026;-70
2023/07/02 11:16:26;;;;;;;18.75;5.80;;;22.10;77.40;;;;;;5022768;28;20166;-71
2023/07/02 11:19:11;;;;;;;22.23;5.88;;;22.20;76.50;;;;;;5010578;28;20040;-72
2023/07/02 11:21:37;;;;;;;15.45;5.40;;;22.00;76.50;;;;;;5023221;28;20100;-70
2023/07/02 11:24:08;;;;;;;15.52;5.30;;;22.10;76.30;;;;;;5031570;28;20117;-70
2023/07/02 11:26:41;;;;;;;22.40;7.35;;;22.00;75.80;;;;;;5033712;28;20037;-72
2023/07/02 11:29:18;;;;;;;13.13;5.40;;;22.10;76.10;;;;;;5033836;28;20064;-68
2023/07/02 11:31:43;;;;;;;16.58;5.13;;;21.90;75.70;;;;;;5033839;28;20386;-70
2023/07/02 11:34:27;;;;;;;14.75;6.22;;;21.90;75.80;;;;;;5033756;28;20479;-70
2023/07/02 11:36:53;;;;;;;14.32;5.78;;;22.00;76.10;;;;;;5033614;28;20037;-68
2023/07/02 11:39:19;;;;;;;16.98;5.50;;;21.80;74.90;;;;;;5033585;28;20038;-71
2023/07/02 11:41:45;;;;;;;17.30;5.65;;;21.50;76.40;;;;;;5065435;28;20099;-71
2023/07/02 11:44:11;;;;;;;17.25;5.63;;;21.50;76.00;;;;;;5033574;28;20043;-70
2023/07/02 11:46:37;;;;;;;15.77;5.28;;;21.40;76.10;;;;;;5065882;28;20109;-71
2023/07/02 11:49:09;;;;;;;19.73;5.60;;;21.40;76.40;;;;;;5033525;28;20036;-69
2023/07/02 11:51:39;;;;;;;13.05;5.50;;;21.20;77.10;;;;;;5033703;28;20041;-69
2023/07/02 11:54:06;;;;;;;15.45;5.72;;;21.30;76.70;;;;;;5033540;28;20056;-69
2023/07/02 11:56:33;;;;;;;12.63;4.97;;;21.40;76.80;;;;;;5033454;28;20041;-69
2023/07/02 11:58:59;;;;;;;15.90;5.40;;;21.60;76.90;;;;;;5053701;28;20112;-69
2023/07/02 12:01:25;;;;;;;12.93;4.97;;;21.70;76.60;;;;;;5053016;28;20498;-69
2023/07/02 12:03:51;;;;;;;13.02;5.07;;;21.80;76.90;;;;;;5053134;28;20033;-68
2023/07/02 12:06:17;;;;;;;14.45;5.18;;;22.00;76.30;;;;;;5052952;28;20108;-69
2023/07/02 12:08:43;;;;;;;15.32;4.95;;;22.10;75.30;;;;;;5052041;28;20424;-68
2023/07/02 12:11:08;;;;;;;11.95;5.78;;;22.20;74.80;;;;;;5052629;28;20025;-69
2023/07/02 12:13:34;;;;;;;11.43;5.13;;;22.10;75.00;;;;;;5053334;28;20037;-69
2023/07/02 12:16:00;;;;;;;15.00;6.05;;;22.20;75.20;;;;;;5053220;28;20124;-69
2023/07/02 12:18:26;;;;;;;16.40;4.78;;;22.10;75.00;;;;;;5052765;28;20379;-68
2023/07/02 12:20:52;;;;;;;13.10;5.55;;;22.10;74.40;;;;;;5052811;28;20177;-68
2023/07/02 12:23:17;;;;;;;17.77;5.40;;;22.00;74.00;;;;;;5052686;28;20036;-69
2023/07/02 12:25:43;;;;;;;17.58;5.55;;;22.00;74.10;;;;;;5053082;28;20040;-69
2023/07/02 12:28:08;;;;;;;20.70;5.68;;;22.10;74.40;;;;;;5051947;28;20044;-67
2023/07/02 12:30:34;;;;;;;13.55;5.28;;;22.20;74.20;;;;;;5051359;28;20516;-68
2023/07/02 12:33:00;;;;;;;14.88;5.80;;;22.20;74.20;;;;;;5051438;28;20029;-68
2023/07/02 12:35:25;;;;;;;16.45;5.85;;;22.30;74.40;;;;;;5050152;28;20442;-69
2023/07/02 12:37:52;;;;;;;12.52;5.32;;;22.40;72.80;;;;;;5052163;28;20025;-68
2023/07/02 12:40:19;;;;;;;12.82;4.95;;;22.50;72.60;;;;;;5050514;28;20040;-69